Time;durP1;ratioP1;P1;durP2;ratioP2;P2;SDS_P1;SDS_P2;PMS_P1;PMS_P2;Temp;Humidity;BMP_temperature;BMP_pressure;BME280_temperature;BME280_humidity;BME280_pressure;Samples;Min_cycle;Max_cycle;Signal;HPM_P1;HPM_P2
2023/10/15 00:01:47;;;;;;;1.60;1.17;;;;;;;;;;5854394;28;20058;-66
2023/10/15 00:04:38;;;;;;;1.13;0.77;;;;;;;;;;5828615;28;20058;-65
2023/10/15 00:07:28;;;;;;;4.32;1.77;;;;;;;;;;5819710;28;20054;-66
2023/10/15 00:10:25;;;;;;;7.05;1.83;;;;;;;;;;5818385;28;20050;-65
2023/10/15 00:13:16;;;;;;;2.72;1.77;;;;;;;;;;5819442;28;20153;-66
2023/10/15 00:16:07;;;;;;;0.63;0.50;;;;;;;;;;5819651;28;20077;-66
2023/10/15 00:18:57;;;;;;;1.08;0.80;;;;;;;;;;5819587;28;20046;-65
2023/10/15 00:21:48;;;;;;;1.27;0.73;;;;;;;;;;5819325;28;20050;-66
2023/10/15 00:24:40;;;;;;;9.73;1.50;;;;;;;;;;5819494;28;20089;-65
2023/10/15 00:27:31;;;;;;;4.85;0.98;;;;;;;;;;5819349;28;20057;-65
2023/10/15 00:30:31;;;;;;;1.67;1.20;;;;;;;;;;5819444;28;20054;-66
2023/10/15 00:33:22;;;;;;;5.30;2.03;;;;;;;;;;5819268;28;20127;-66
2023/10/15 00:36:13;;;;;;;3.83;1.90;;;;;;;;;;5819088;28;20097;-65
2023/10/15 00:39:11;;;;;;;3.00;1.20;;;;;;;;;;5819317;28;20050;-66
2023/10/15 00:42:02;;;;;;;2.53;1.35;;;;;;;;;;5819077;28;20500;-66
2023/10/15 00:44:53;;;;;;;2.33;1.38;;;;;;;;;;5819537;28;20050;-65
2023/10/15 00:50:56;;;;;;;2.20;1.17;;;;;;;;;;5819270;28;20460;-66
2023/10/15 00:53:50;;;;;;;0.98;0.50;;;;;;;;;;5818961;28;20050;-65
2023/10/15 00:56:46;;;;;;;0.50;0.50;;;;;;;;;;5818689;28;20054;-65
2023/10/15 00:59:48;;;;;;;1.45;0.98;;;;;;;;;;5818823;28;20054;-65
2023/10/15 01:02:44;;;;;;;7.03;1.55;;;;;;;;;;5818671;28;20076;-65
2023/10/15 01:05:45;;;;;;;4.53;2.00;;;;;;;;;;5818613;28;20050;-65
2023/10/15 01:08:38;;;;;;;1.73;1.10;;;;;;;;;;5818208;28;20073;-65
2023/10/15 01:11:29;;;;;;;2.58;1.67;;;;;;;;;;5818489;28;20499;-65
2023/10/15 01:14:44;;;;;;;5.82;1.02;;;;;;;;;;5818369;28;20061;-65
2023/10/15 01:17:37;;;;;;;2.47;0.77;;;;;;;;;;5818405;28;20055;-65
2023/10/15 01:20:30;;;;;;;2.47;0.43;;;;;;;;;;5818073;28;20455;-65
2023/10/15 01:23:32;;;;;;;2.38;0.98;;;;;;;;;;5818127;28;20058;-65
2023/10/15 01:26:23;;;;;;;1.25;0.77;;;;;;;;;;5818201;28;20409;-65
2023/10/15 01:29:19;;;;;;;0.68;0.68;;;;;;;;;;5817911;28;20050;-65
2023/10/15 01:32:15;;;;;;;24.75;1.52;;;;;;;;;;5817522;28;20058;-66
2023/10/15 01:35:10;;;;;;;1.95;1.17;;;;;;;;;;5818172;28;20046;-66
2023/10/15 01:38:20;;;;;;;3.15;1.38;;;;;;;;;;5817971;28;20050;-66
2023/10/15 01:41:14;;;;;;;10.20;1.15;;;;;;;;;;5817695;28;20056;-66
2023/10/15 01:44:07;;;;;;;3.03;1.48;;;;;;;;;;5818171;28;20061;-65
2023/10/15 01:49:57;;;;;;;0.85;0.60;;;;;;;;;;5818257;28;20046;-65
2023/10/15 01:53:01;;;;;;;3.53;1.42;;;;;;;;;;5817712;28;20181;-65
2023/10/15 01:56:02;;;;;;;3.45;1.23;;;;;;;;;;5817937;28;20046;-65
2023/10/15 01:58:55;;;;;;;8.75;1.60;;;;;;;;;;5817863;28;20078;-65
2023/10/15 02:01:51;;;;;;;27.15;1.23;;;;;;;;;;5817466;28;20101;-65
2023/10/15 02:04:46;;;;;;;2.40;1.33;;;;;;;;;;5817264;28;20119;-65
2023/10/15 02:07:39;;;;;;;8.00;0.82;;;;;;;;;;5817436;28;20522;-65
2023/10/15 02:10:30;;;;;;;10.20;1.35;;;;;;;;;;5817214;28;20643;-65
2023/10/15 02:13:20;;;;;;;3.67;1.85;;;;;;;;;;5817251;28;20062;-65
2023/10/15 02:16:49;;;;;;;2.22;1.48;;;;;;;;;;5817316;28;20133;-65
2023/10/15 02:22:22;;;;;;;2.45;1.67;;;;;;;;;;5817149;28;20496;-66
2023/10/15 02:25:15;;;;;;;0.93;0.85;;;;;;;;;;5817209;28;20124;-65
2023/10/15 02:28:09;;;;;;;1.98;1.17;;;;;;;;;;5816983;28;20051;-66
2023/10/15 02:34:01;;;;;;;1.85;0.70;;;;;;;;;;5816829;28;20050;-66
2023/10/15 02:36:52;;;;;;;4.40;1.73;;;;;;;;;;5817572;28;20077;-65
2023/10/15 02:39:52;;;;;;;7.38;2.28;;;;;;;;;;5817119;28;20050;-65
2023/10/15 02:42:52;;;;;;;5.25;1.88;;;;;;;;;;5819829;28;20129;-65
2023/10/15 02:45:44;;;;;;;4.22;1.00;;;;;;;;;;5821875;28;20054;-65
2023/10/15 02:48:41;;;;;;;2.03;0.57;;;;;;;;;;5825629;28;20181;-65
2023/10/15 02:51:35;;;;;;;2.60;0.90;;;;;;;;;;5844489;28;20495;-65
2023/10/15 02:54:36;;;;;;;0.47;0.40;;;;;;;;;;5844377;28;20145;-65
2023/10/15 02:57:29;;;;;;;3.92;2.05;;;;;;;;;;5843982;28;20056;-65
2023/10/15 03:00:29;;;;;;;0.93;0.63;;;;;;;;;;5844263;28;20549;-65
2023/10/15 03:03:23;;;;;;;0.65;0.45;;;;;;;;;;5844013;28;20435;-66
2023/10/15 03:06:31;;;;;;;4.80;1.45;;;;;;;;;;5844101;28;20057;-65
2023/10/15 03:09:26;;;;;;;2.85;0.73;;;;;;;;;;5843760;28;20049;-65
2023/10/15 03:12:18;;;;;;;3.08;0.98;;;;;;;;;;5843941;28;20444;-66
2023/10/15 03:15:16;;;;;;;2.55;1.23;;;;;;;;;;5843618;28;20046;-66
2023/10/15 03:18:14;;;;;;;3.00;1.15;;;;;;;;;;5843781;28;20050;-65
2023/10/15 03:21:14;;;;;;;0.32;0.32;;;;;;;;;;5843860;28;20053;-65
2023/10/15 03:24:06;;;;;;;2.25;1.27;;;;;;;;;;5843360;28;20054;-66
2023/10/15 03:26:58;;;;;;;4.03;1.95;;;;;;;;;;5840197;28;20093;-65
2023/10/15 03:29:51;;;;;;;3.40;1.52;;;;;;;;;;5844178;28;20060;-65
2023/10/15 03:32:44;;;;;;;3.38;1.73;;;;;;;;;;5843887;28;20521;-65
2023/10/15 03:35:39;;;;;;;0.40;0.40;;;;;;;;;;5842987;28;20053;-65
2023/10/15 03:38:34;;;;;;;8.80;1.60;;;;;;;;;;5843474;28;20394;-65
2023/10/15 03:41:29;;;;;;;6.40;0.68;;;;;;;;;;5843043;28;20053;-65
2023/10/15 03:44:27;;;;;;;0.52;0.45;;;;;;;;;;5843161;28;20128;-65
2023/10/15 03:47:24;;;;;;;7.20;2.70;;;;;;;;;;5843263;28;20049;-65
2023/10/15 03:50:15;;;;;;;1.05;0.70;;;;;;;;;;5843572;28;20049;-65
2023/10/15 03:53:07;;;;;;;3.30;1.20;;;;;;;;;;5842858;28;20049;-65
2023/10/15 03:56:01;;;;;;;2.38;0.93;;;;;;;;;;5843534;28;20053;-65
2023/10/15 03:58:52;;;;;;;1.17;0.65;;;;;;;;;;5843118;28;20048;-65
2023/10/15 04:01:49;;;;;;;2.58;0.85;;;;;;;;;;5842951;28;20049;-65
2023/10/15 04:04:40;;;;;;;1.98;1.20;;;;;;;;;;5843001;28;20049;-65
2023/10/15 04:07:31;;;;;;;3.67;2.30;;;;;;;;;;5841625;28;20083;-65
2023/10/15 04:10:33;;;;;;;11.93;8.95;;;;;;;;;;5842241;28;20411;-65
2023/10/15 04:13:27;;;;;;;2.53;2.15;;;;;;;;;;5842822;28;20057;-65
2023/10/15 04:16:22;;;;;;;7.43;4.18;;;;;;;;;;5842595;28;20633;-65
2023/10/15 04:19:17;;;;;;;1.40;1.30;;;;;;;;;;5820069;28;20057;-65
2023/10/15 04:22:15;;;;;;;1.00;0.55;;;;;;;;;;5819228;28;20054;-65
2023/10/15 04:25:06;;;;;;;1.35;1.20;;;;;;;;;;5828168;28;20042;-65
2023/10/15 04:27:57;;;;;;;0.52;0.52;;;;;;;;;;5842424;28;20139;-65
2023/10/15 04:30:48;;;;;;;1.08;0.63;;;;;;;;;;5842283;28;20049;-65
2023/10/15 04:33:43;;;;;;;2.88;1.77;;;;;;;;;;5842618;28;20065;-65
2023/10/15 04:36:40;;;;;;;2.70;0.95;;;;;;;;;;5842139;28;20491;-65
2023/10/15 04:39:31;;;;;;;6.05;1.33;;;;;;;;;;5842167;28;20522;-65
2023/10/15 04:42:29;;;;;;;4.13;1.10;;;;;;;;;;5842131;28;20566;-65
2023/10/15 04:48:27;;;;;;;0.88;0.88;;;;;;;;;;5841161;28;20112;-65
2023/10/15 04:51:29;;;;;;;0.70;0.70;;;;;;;;;;5815485;28;20511;-65
2023/10/15 04:54:23;;;;;;;0.32;0.32;;;;;;;;;;5820625;28;20454;-65
2023/10/15 04:57:14;;;;;;;0.75;0.40;;;;;;;;;;5841651;28;20132;-65
2023/10/15 05:00:07;;;;;;;1.20;0.55;;;;;;;;;;5841937;28;20046;-65
2023/10/15 05:02:58;;;;;;;1.20;0.82;;;;;;;;;;5841373;28;20061;-65
2023/10/15 05:05:50;;;;;;;0.60;0.60;;;;;;;;;;5840398;28;20052;-65
2023/10/15 05:08:42;;;;;;;1.60;0.90;;;;;;;;;;5840683;28;20058;-65
2023/10/15 05:11:33;;;;;;;1.45;0.95;;;;;;;;;;5839307;28;20058;-65
2023/10/15 05:14:24;;;;;;;0.88;0.88;;;;;;;;;;5840810;28;20057;-65
2023/10/15 05:17:16;;;;;;;1.38;0.57;;;;;;;;;;5840656;28;20054;-65
2023/10/15 05:20:11;;;;;;;1.20;0.55;;;;;;;;;;5840471;28;20050;-65
2023/10/15 05:23:03;;;;;;;2.03;0.98;;;;;;;;;;5840750;28;20061;-66
2023/10/15 05:25:56;;;;;;;0.32;0.32;;;;;;;;;;5840864;28;20065;-65
2023/10/15 05:28:47;;;;;;;1.20;1.02;;;;;;;;;;5840345;28;20052;-65
2023/10/15 05:31:38;;;;;;;2.83;1.25;;;;;;;;;;5840522;28;20057;-65
2023/10/15 05:34:29;;;;;;;3.17;1.83;;;;;;;;;;5840362;28;20057;-65
2023/10/15 05:37:21;;;;;;;0.28;0.28;;;;;;;;;;5840259;28;20058;-65
2023/10/15 05:40:12;;;;;;;2.50;1.42;;;;;;;;;;5839964;28;20407;-65
2023/10/15 05:43:04;;;;;;;1.15;1.02;;;;;;;;;;5840275;28;20092;-65
2023/10/15 05:45:55;;;;;;;1.75;0.98;;;;;;;;;;5840715;28;20418;-65
2023/10/15 05:48:47;;;;;;;1.48;0.65;;;;;;;;;;5840302;28;20092;-65
2023/10/15 05:51:38;;;;;;;2.03;0.45;;;;;;;;;;5839657;28;20060;-65
2023/10/15 05:54:32;;;;;;;2.10;1.50;;;;;;;;;;5839521;28;20069;-65
2023/10/15 05:57:23;;;;;;;13.20;1.40;;;;;;;;;;5837712;28;20052;-64
2023/10/15 06:00:17;;;;;;;2.40;1.17;;;;;;;;;;5839000;28;20056;-65
2023/10/15 06:03:09;;;;;;;1.85;1.48;;;;;;;;;;5840280;28;20670;-65
2023/10/15 06:06:01;;;;;;;1.00;0.70;;;;;;;;;;5840618;28;20499;-64
2023/10/15 06:08:53;;;;;;;0.85;0.70;;;;;;;;;;5837099;28;20121;-64
2023/10/15 06:11:45;;;;;;;0.30;0.30;;;;;;;;;;5839797;28;20046;-64
2023/10/15 06:14:36;;;;;;;0.95;0.85;;;;;;;;;;5840003;28;20054;-64
2023/10/15 06:17:27;;;;;;;2.25;0.52;;;;;;;;;;5842627;28;20046;-64
2023/10/15 06:20:19;;;;;;;2.17;0.93;;;;;;;;;;5844288;28;20096;-65
2023/10/15 06:23:13;;;;;;;1.25;0.73;;;;;;;;;;5844580;28;20061;-64
2023/10/15 06:26:04;;;;;;;1.73;0.98;;;;;;;;;;5843471;28;20054;-64
2023/10/15 06:28:55;;;;;;;5.72;1.08;;;;;;;;;;5845185;28;20085;-64
2023/10/15 06:31:46;;;;;;;1.30;1.10;;;;;;;;;;5860330;28;20053;-64
2023/10/15 06:34:39;;;;;;;2.95;1.90;;;;;;;;;;5844961;28;20049;-64
2023/10/15 06:37:30;;;;;;;4.18;1.45;;;;;;;;;;5845205;28;20061;-64
2023/10/15 06:40:21;;;;;;;8.88;1.63;;;;;;;;;;5843712;28;20061;-64
2023/10/15 06:43:15;;;;;;;0.38;0.38;;;;;;;;;;5844973;28;20050;-64
2023/10/15 06:46:07;;;;;;;3.05;0.75;;;;;;;;;;5844898;28;20057;-64
2023/10/15 06:48:59;;;;;;;5.07;1.35;;;;;;;;;;5845125;28;20052;-64
2023/10/15 06:51:50;;;;;;;0.57;0.52;;;;;;;;;;5845062;28;20125;-64
2023/10/15 06:54:40;;;;;;;1.13;0.82;;;;;;;;;;5842932;28;20049;-64
2023/10/15 06:57:32;;;;;;;2.03;0.60;;;;;;;;;;5844074;28;20054;-64
2023/10/15 07:00:23;;;;;;;4.93;3.33;;;;;;;;;;5836971;28;20054;-64
2023/10/15 07:03:15;;;;;;;1.23;0.93;;;;;;;;;;5843108;28;20050;-64
2023/10/15 07:06:06;;;;;;;6.50;1.85;;;;;;;;;;5841357;28;20056;-64
2023/10/15 07:08:59;;;;;;;2.58;0.73;;;;;;;;;;5840559;28;20592;-64
2023/10/15 07:11:49;;;;;;;11.07;1.70;;;;;;;;;;5839918;28;20410;-63
2023/10/15 07:14:40;;;;;;;12.80;1.08;;;;;;;;;;5839960;28;20588;-64
2023/10/15 07:17:31;;;;;;;2.00;0.98;;;;;;;;;;5840195;28;20061;-64
2023/10/15 07:20:26;;;;;;;5.30;0.77;;;;;;;;;;5840676;28;20055;-64
2023/10/15 07:23:18;;;;;;;5.03;0.98;;;;;;;;;;5843201;28;20057;-64
2023/10/15 07:26:09;;;;;;;4.80;1.38;;;;;;;;;;5843632;28;20053;-64
2023/10/15 07:29:00;;;;;;;0.52;0.45;;;;;;;;;;5841616;28;20046;-64
2023/10/15 07:31:51;;;;;;;9.45;0.88;;;;;;;;;;5841940;28;20046;-64
2023/10/15 07:34:42;;;;;;;1.67;0.93;;;;;;;;;;5842979;28;20052;-63
2023/10/15 07:37:36;;;;;;;2.67;1.55;;;;;;;;;;5842807;28;20057;-64
2023/10/15 07:40:27;;;;;;;2.72;1.13;;;;;;;;;;5843352;28;20509;-64
2023/10/15 07:43:18;;;;;;;14.13;0.60;;;;;;;;;;5843154;28;20534;-64
2023/10/15 07:46:09;;;;;;;0.55;0.55;;;;;;;;;;5843099;28;20049;-64
2023/10/15 07:49:00;;;;;;;0.80;0.80;;;;;;;;;;5843633;28;20594;-64
2023/10/15 07:51:51;;;;;;;1.42;0.82;;;;;;;;;;5843367;28;20522;-64
2023/10/15 07:54:42;;;;;;;16.80;1.58;;;;;;;;;;5842917;28;20530;-65
2023/10/15 07:57:34;;;;;;;1.30;0.77;;;;;;;;;;5842012;28;20050;-64
2023/10/15 08:00:30;;;;;;;1.70;1.15;;;;;;;;;;5842818;28;20054;-64
2023/10/15 08:03:21;;;;;;;2.70;0.75;;;;;;;;;;5842526;28;20069;-64
2023/10/15 08:06:12;;;;;;;4.38;0.82;;;;;;;;;;5842722;28;20536;-64
2023/10/15 08:09:04;;;;;;;3.45;1.40;;;;;;;;;;5842400;28;20052;-65
2023/10/15 08:11:54;;;;;;;4.40;2.85;;;;;;;;;;5842784;28;20049;-65
2023/10/15 08:14:46;;;;;;;0.95;0.75;;;;;;;;;;5842397;28;20064;-65
2023/10/15 08:17:37;;;;;;;4.03;1.10;;;;;;;;;;5842406;28;20084;-65
2023/10/15 08:20:28;;;;;;;3.15;1.40;;;;;;;;;;5842415;28;20054;-64
2023/10/15 08:23:19;;;;;;;1.45;0.75;;;;;;;;;;5842295;28;20136;-65
2023/10/15 08:26:10;;;;;;;0.90;0.68;;;;;;;;;;5842203;28;20056;-65
2023/10/15 08:29:01;;;;;;;3.85;1.38;;;;;;;;;;5842092;28;20050;-66
2023/10/15 08:31:51;;;;;;;1.60;0.63;;;;;;;;;;5842424;28;20061;-66
2023/10/15 08:34:46;;;;;;;7.88;1.13;;;;;;;;;;5842080;28;20057;-65
2023/10/15 08:37:37;;;;;;;1.17;0.65;;;;;;;;;;5841973;28;20423;-65
2023/10/15 08:40:32;;;;;;;1.70;0.60;;;;;;;;;;5841884;28;20052;-65
2023/10/15 08:43:32;;;;;;;2.50;1.30;;;;;;;;;;5840460;28;20050;-65
2023/10/15 08:46:24;;;;;;;9.25;1.17;;;;;;;;;;5841561;28;20495;-64
2023/10/15 08:49:15;;;;;;;1.85;0.95;;;;;;;;;;5840522;28;20412;-64
2023/10/15 08:52:07;;;;;;;1.13;0.70;;;;;;;;;;5841782;28;20046;-65
2023/10/15 08:55:01;;;;;;;0.63;0.60;;;;;;;;;;5842025;28;20046;-65
2023/10/15 08:57:54;;;;;;;4.28;1.35;;;;;;;;;;5841817;28;20052;-64
2023/10/15 09:00:47;;;;;;;2.53;0.85;;;;;;;;;;5841213;28;20049;-65
2023/10/15 09:03:38;;;;;;;26.10;1.15;;;;;;;;;;5839827;28;20058;-65
2023/10/15 09:06:30;;;;;;;2.45;1.48;;;;;;;;;;5840067;28;20054;-64
2023/10/15 09:09:21;;;;;;;2.50;0.43;;;;;;;;;;5834693;28;20058;-65
2023/10/15 09:12:12;;;;;;;0.47;0.43;;;;;;;;;;5840227;28;20057;-65
2023/10/15 09:15:15;;;;;;;1.85;1.23;;;;;;;;;;5841945;28;20459;-65
2023/10/15 09:18:06;;;;;;;3.47;1.35;;;;;;;;;;5839667;28;20046;-66
2023/10/15 09:20:59;;;;;;;0.60;0.45;;;;;;;;;;5841863;28;20060;-65
2023/10/15 09:23:51;;;;;;;0.85;0.70;;;;;;;;;;5841013;28;20052;-65
2023/10/15 09:26:43;;;;;;;0.50;0.40;;;;;;;;;;5841671;28;20056;-65
2023/10/15 09:29:33;;;;;;;3.13;1.02;;;;;;;;;;5856571;28;20046;-64
2023/10/15 09:32:24;;;;;;;1.88;0.85;;;;;;;;;;5841352;28;20067;-65
2023/10/15 09:35:16;;;;;;;2.90;1.27;;;;;;;;;;5841416;28;20419;-65
2023/10/15 09:38:14;;;;;;;4.63;1.70;;;;;;;;;;5840553;28;20099;-66
2023/10/15 09:41:05;;;;;;;4.03;1.33;;;;;;;;;;5830564;28;20053;-65
2023/10/15 09:43:57;;;;;;;1.35;0.88;;;;;;;;;;5855611;28;20046;-65
2023/10/15 09:46:49;;;;;;;5.40;1.50;;;;;;;;;;5841452;28;20046;-65
2023/10/15 09:49:41;;;;;;;4.78;1.33;;;;;;;;;;5841102;28;20108;-65
2023/10/15 09:52:34;;;;;;;0.75;0.63;;;;;;;;;;5838377;28;20953;-66
2023/10/15 09:55:27;;;;;;;5.57;1.58;;;;;;;;;;5839346;28;20050;-66
2023/10/15 09:58:18;;;;;;;2.35;1.23;;;;;;;;;;5840562;28;20053;-66
2023/10/15 10:01:25;;;;;;;3.80;0.80;;;;;;;;;;5840832;28;20046;-66
2023/10/15 10:04:35;;;;;;;1.10;1.00;;;;;;;;;;5826226;28;20089;-67
2023/10/15 10:07:40;;;;;;;1.92;0.82;;;;;;;;;;5832266;28;20046;-65
2023/10/15 10:10:51;;;;;;;8.02;0.55;;;;;;;;;;5821524;28;20133;-66
2023/10/15 10:14:19;;;;;;;0.93;0.75;;;;;;;;;;5840420;28;20056;-66
2023/10/15 10:17:12;;;;;;;3.72;0.80;;;;;;;;;;5837455;28;20050;-66
2023/10/15 10:20:11;;;;;;;1.45;0.68;;;;;;;;;;5839255;28;20108;-65
2023/10/15 10:23:06;;;;;;;1.10;1.00;;;;;;;;;;5821257;28;20970;-67
2023/10/15 10:25:58;;;;;;;1.20;0.82;;;;;;;;;;5838838;28;20057;-68
2023/10/15 10:28:49;;;;;;;0.65;0.50;;;;;;;;;;5840202;28;20054;-67
2023/10/15 10:31:41;;;;;;;1.60;0.77;;;;;;;;;;5840090;28;20057;-67
2023/10/15 10:34:32;;;;;;;2.75;0.80;;;;;;;;;;5839015;28;20064;-66
2023/10/15 10:37:23;;;;;;;4.43;1.33;;;;;;;;;;5840792;28;20498;-66
2023/10/15 10:40:52;;;;;;;10.50;1.63;;;;;;;;;;5839923;28;20419;-67
2023/10/15 10:43:44;;;;;;;12.82;5.53;;;;;;;;;;5840181;28;20054;-66
2023/10/15 10:46:44;;;;;;;6.10;1.23;;;;;;;;;;5839242;28;20050;-65
2023/10/15 10:49:40;;;;;;;1.50;1.10;;;;;;;;;;5840298;28;20054;-67
2023/10/15 10:52:36;;;;;;;1.30;0.98;;;;;;;;;;5839749;28;20131;-67
2023/10/15 10:55:33;;;;;;;3.72;1.60;;;;;;;;;;5840623;28;20057;-67
2023/10/15 10:58:24;;;;;;;1.50;0.70;;;;;;;;;;5840271;28;20061;-63
2023/10/15 11:01:15;;;;;;;2.38;1.05;;;;;;;;;;5840212;28;20061;-67
2023/10/15 11:04:08;;;;;;;1.38;0.65;;;;;;;;;;5842055;28;20049;-66
2023/10/15 11:07:00;;;;;;;2.10;0.77;;;;;;;;;;5845210;28;20050;-67
2023/10/15 11:09:52;;;;;;;12.68;0.95;;;;;;;;;;5843607;28;20053;-67
2023/10/15 11:12:46;;;;;;;11.02;1.42;;;;;;;;;;5843968;28;20057;-67
2023/10/15 11:15:37;;;;;;;5.05;1.10;;;;;;;;;;5843315;28;20056;-67
2023/10/15 11:18:29;;;;;;;0.30;0.28;;;;;;;;;;5843413;28;20057;-67
2023/10/15 11:21:21;;;;;;;1.10;0.50;;;;;;;;;;5843355;28;20116;-66
2023/10/15 11:24:13;;;;;;;2.13;1.13;;;;;;;;;;5843487;28;20435;-66
2023/10/15 11:27:13;;;;;;;1.83;0.80;;;;;;;;;;5843336;28;20498;-67
2023/10/15 11:30:05;;;;;;;0.65;0.40;;;;;;;;;;5844204;28;20053;-66
2023/10/15 11:32:55;;;;;;;5.68;0.70;;;;;;;;;;5841072;28;20437;-66
2023/10/15 11:35:48;;;;;;;2.25;0.77;;;;;;;;;;5843286;28;20073;-67
2023/10/15 11:38:38;;;;;;;0.70;0.50;;;;;;;;;;5842828;28;20411;-67
2023/10/15 11:41:35;;;;;;;1.48;1.05;;;;;;;;;;5843098;28;20054;-67
2023/10/15 11:44:26;;;;;;;0.80;0.50;;;;;;;;;;5843135;28;20057;-67
2023/10/15 11:47:24;;;;;;;0.40;0.40;;;;;;;;;;5843379;28;20129;-67
2023/10/15 11:50:19;;;;;;;6.00;0.95;;;;;;;;;;5854878;28;20125;-67
2023/10/15 11:53:20;;;;;;;17.90;1.27;;;;;;;;;;5842968;28;20499;-67
2023/10/15 11:56:20;;;;;;;0.82;0.50;;;;;;;;;;5842256;28;20053;-67
2023/10/15 11:59:11;;;;;;;0.43;0.32;;;;;;;;;;5843210;28;20053;-67
2023/10/15 12:02:02;;;;;;;2.08;0.82;;;;;;;;;;5841861;28;20061;-67
2023/10/15 12:04:56;;;;;;;0.80;0.52;;;;;;;;;;5843698;28;20131;-67
2023/10/15 12:07:49;;;;;;;0.88;0.70;;;;;;;;;;5842652;28;20053;-66
2023/10/15 12:10:44;;;;;;;0.98;0.85;;;;;;;;;;5843103;28;20050;-66
2023/10/15 12:13:35;;;;;;;0.60;0.40;;;;;;;;;;5841553;28;20085;-66
2023/10/15 12:16:25;;;;;;;1.35;0.85;;;;;;;;;;5842513;28;20415;-66
2023/10/15 12:19:17;;;;;;;1.75;0.68;;;;;;;;;;5842984;28;20054;-66
2023/10/15 12:22:10;;;;;;;0.20;0.20;;;;;;;;;;5842649;28;20060;-66
2023/10/15 12:25:06;;;;;;;0.50;0.30;;;;;;;;;;5842596;28;20522;-67
2023/10/15 12:27:58;;;;;;;3.15;1.08;;;;;;;;;;5843153;28;20054;-66
2023/10/15 12:30:48;;;;;;;3.42;0.88;;;;;;;;;;5843094;28;20066;-66
2023/10/15 12:33:39;;;;;;;1.15;0.73;;;;;;;;;;5842214;28;20049;-66
2023/10/15 12:36:30;;;;;;;5.57;1.05;;;;;;;;;;5842744;28;20053;-66
2023/10/15 12:39:26;;;;;;;3.92;1.80;;;;;;;;;;5842206;28;20058;-66
2023/10/15 12:42:19;;;;;;;0.50;0.35;;;;;;;;;;5842328;28;20074;-66
2023/10/15 12:45:10;;;;;;;2.78;0.60;;;;;;;;;;5841627;28;20140;-66
2023/10/15 12:48:01;;;;;;;0.55;0.50;;;;;;;;;;5840157;28;20045;-66
2023/10/15 12:50:52;;;;;;;0.98;0.68;;;;;;;;;;5842939;28;20046;-66
2023/10/15 12:53:43;;;;;;;3.35;1.45;;;;;;;;;;5841594;28;20054;-66
2023/10/15 12:56:34;;;;;;;0.60;0.43;;;;;;;;;;5841858;28;20054;-66
2023/10/15 12:59:24;;;;;;;2.95;1.13;;;;;;;;;;5841951;28;20054;-65
2023/10/15 13:02:17;;;;;;;1.10;0.50;;;;;;;;;;5842040;28;20041;-66
2023/10/15 13:05:09;;;;;;;1.17;0.90;;;;;;;;;;5841845;28;20057;-66
2023/10/15 13:08:00;;;;;;;3.00;1.70;;;;;;;;;;5841335;28;20042;-65
2023/10/15 13:10:51;;;;;;;1.85;0.35;;;;;;;;;;5842058;28;20491;-65
2023/10/15 13:13:42;;;;;;;4.90;1.50;;;;;;;;;;5841639;28;20057;-66
2023/10/15 13:16:33;;;;;;;4.07;0.93;;;;;;;;;;5841927;28;20100;-65
2023/10/15 13:19:24;;;;;;;0.45;0.45;;;;;;;;;;5841455;28;20127;-66
2023/10/15 13:22:15;;;;;;;0.90;0.68;;;;;;;;;;5841589;28;20050;-66
2023/10/15 13:25:08;;;;;;;4.00;2.05;;;;;;;;;;5841210;28;20046;-65
2023/10/15 13:27:58;;;;;;;2.92;1.63;;;;;;;;;;5840546;28;20050;-64
2023/10/15 13:30:49;;;;;;;6.60;2.90;;;;;;;;;;5841921;28;20056;-66
2023/10/15 13:33:41;;;;;;;9.23;4.55;;;;;;;;;;5841265;28;20058;-66
2023/10/15 13:36:33;;;;;;;3.05;1.63;;;;;;;;;;5840987;28;20142;-66
2023/10/15 13:39:28;;;;;;;3.08;1.95;;;;;;;;;;5838408;28;20050;-66
2023/10/15 13:42:19;;;;;;;2.63;1.33;;;;;;;;;;5839604;28;20050;-66
2023/10/15 13:45:15;;;;;;;1.75;1.23;;;;;;;;;;5840658;28;20053;-66
2023/10/15 13:48:06;;;;;;;2.58;1.25;;;;;;;;;;5840205;28;20050;-66
2023/10/15 13:50:57;;;;;;;7.18;1.33;;;;;;;;;;5841275;28;20053;-66
2023/10/15 13:53:48;;;;;;;1.52;1.17;;;;;;;;;;5840488;28;20081;-66
2023/10/15 13:56:41;;;;;;;2.08;0.80;;;;;;;;;;5839994;28;20060;-66
2023/10/15 13:59:32;;;;;;;6.00;0.95;;;;;;;;;;5840297;28;20084;-66
2023/10/15 14:02:24;;;;;;;1.58;0.55;;;;;;;;;;5840096;28;20487;-66
2023/10/15 14:05:16;;;;;;;2.65;0.57;;;;;;;;;;5841188;28;20045;-66
2023/10/15 14:08:08;;;;;;;2.08;0.85;;;;;;;;;;5847593;28;20144;-66
2023/10/15 14:10:59;;;;;;;3.92;1.60;;;;;;;;;;5839807;28;20053;-66
2023/10/15 14:13:54;;;;;;;2.38;1.40;;;;;;;;;;5840669;28;20054;-66
2023/10/15 14:16:46;;;;;;;7.72;1.95;;;;;;;;;;5841121;28;20046;-66
2023/10/15 14:19:38;;;;;;;1.70;1.15;;;;;;;;;;5840698;28;20057;-66
2023/10/15 14:22:29;;;;;;;3.45;0.93;;;;;;;;;;5840466;28;20057;-66
2023/10/15 14:25:20;;;;;;;0.77;0.60;;;;;;;;;;5839248;28;20050;-66
2023/10/15 14:28:10;;;;;;;0.60;0.35;;;;;;;;;;5840523;28;20046;-66
2023/10/15 14:31:01;;;;;;;2.97;1.40;;;;;;;;;;5840445;28;20054;-67
2023/10/15 14:33:52;;;;;;;1.20;0.80;;;;;;;;;;5855874;28;20491;-66
2023/10/15 14:36:47;;;;;;;0.40;0.40;;;;;;;;;;5840741;28;20050;-66
2023/10/15 14:39:38;;;;;;;6.80;1.70;;;;;;;;;;5843875;28;20064;-66
2023/10/15 14:42:29;;;;;;;3.22;1.63;;;;;;;;;;5843712;28;20467;-66
2023/10/15 14:45:21;;;;;;;1.13;0.98;;;;;;;;;;5844845;28;20053;-66
2023/10/15 14:48:13;;;;;;;1.70;1.20;;;;;;;;;;5843985;28;20042;-66
2023/10/15 14:51:04;;;;;;;10.10;1.42;;;;;;;;;;5843784;28;20054;-66
2023/10/15 14:53:55;;;;;;;3.00;1.30;;;;;;;;;;5843858;28;20046;-66
2023/10/15 14:56:47;;;;;;;2.35;1.65;;;;;;;;;;5844564;28;20046;-66
2023/10/15 14:59:38;;;;;;;2.05;0.95;;;;;;;;;;5844092;28;20062;-66
2023/10/15 15:02:29;;;;;;;2.40;1.15;;;;;;;;;;5844441;28;20060;-66
2023/10/15 15:05:20;;;;;;;6.25;1.65;;;;;;;;;;5843919;28;22377;-66
2023/10/15 15:08:11;;;;;;;5.38;2.05;;;;;;;;;;5846642;28;20061;-66
2023/10/15 15:11:02;;;;;;;4.38;1.92;;;;;;;;;;5855870;28;20084;-66
2023/10/15 15:13:53;;;;;;;7.13;3.83;;;;;;;;;;5844307;28;20065;-66
2023/10/15 15:16:44;;;;;;;8.45;3.17;;;;;;;;;;5853261;28;20048;-66
2023/10/15 15:19:35;;;;;;;2.83;1.83;;;;;;;;;;5844070;28;20418;-66
2023/10/15 15:22:26;;;;;;;6.82;2.22;;;;;;;;;;5843884;28;20050;-66
2023/10/15 15:25:20;;;;;;;4.85;1.92;;;;;;;;;;5843441;28;20050;-66
2023/10/15 15:28:11;;;;;;;0.60;0.60;;;;;;;;;;5843772;28;20050;-66
2023/10/15 15:31:02;;;;;;;2.50;1.63;;;;;;;;;;5844318;28;20052;-66
2023/10/15 15:33:52;;;;;;;14.15;1.58;;;;;;;;;;5843949;28;20077;-66
2023/10/15 15:36:43;;;;;;;2.28;1.20;;;;;;;;;;5844043;28;20393;-66
2023/10/15 15:39:35;;;;;;;2.63;1.33;;;;;;;;;;5843265;28;20053;-66
2023/10/15 15:42:26;;;;;;;3.13;2.10;;;;;;;;;;5843529;28;20356;-66
2023/10/15 15:45:16;;;;;;;5.32;2.67;;;;;;;;;;5842020;28;20050;-66
2023/10/15 15:48:07;;;;;;;3.15;2.05;;;;;;;;;;5842825;28;20046;-66
2023/10/15 15:50:58;;;;;;;3.42;1.55;;;;;;;;;;5841629;28;20095;-66
2023/10/15 15:53:50;;;;;;;2.58;2.10;;;;;;;;;;5842427;28;20068;-67
2023/10/15 15:56:41;;;;;;;1.52;1.02;;;;;;;;;;5842353;28;20104;-66
2023/10/15 15:59:32;;;;;;;2.42;1.83;;;;;;;;;;5841086;28;20050;-67
2023/10/15 16:02:25;;;;;;;2.25;1.42;;;;;;;;;;5841000;28;20054;-67
2023/10/15 16:05:17;;;;;;;9.57;2.42;;;;;;;;;;5841447;28;20056;-67
2023/10/15 16:08:08;;;;;;;6.85;3.25;;;;;;;;;;5841124;28;20510;-66
2023/10/15 16:10:59;;;;;;;2.90;2.35;;;;;;;;;;5842776;28;20046;-66
2023/10/15 16:13:52;;;;;;;4.13;2.20;;;;;;;;;;5842405;28;20172;-66
2023/10/15 16:16:45;;;;;;;7.22;1.35;;;;;;;;;;5843371;28;20503;-67
2023/10/15 16:38:33;;;;;;;5.88;4.00;;;;;;;;;;6279411;22;20546;-67
2023/10/15 16:41:24;;;;;;;4.70;2.60;;;;;;;;;;5901024;22;20468;-73
2023/10/15 16:44:15;;;;;;;10.30;3.72;;;;;;;;;;5962543;22;20041;-72
2023/10/15 16:47:06;;;;;;;36.85;4.13;;;;;;;;;;5866073;28;20049;-71
2023/10/15 16:49:57;;;;;;;5.95;3.28;;;;;;;;;;6042179;22;20053;-79
2023/10/15 16:52:48;;;;;;;7.88;4.03;;;;;;;;;;5862208;28;20613;-79
2023/10/15 16:55:39;;;;;;;5.53;4.60;;;;;;;;;;5865486;28;20045;-80
2023/10/15 16:58:34;;;;;;;5.47;4.25;;;;;;;;;;5864139;28;20056;-80
2023/10/15 17:01:27;;;;;;;12.27;4.15;;;;;;;;;;5864688;28;20057;-79
2023/10/15 17:04:17;;;;;;;10.90;7.13;;;;;;;;;;5862691;28;20156;-79
2023/10/15 17:07:08;;;;;;;13.50;8.13;;;;;;;;;;5880468;28;20061;-80
2023/10/15 17:10:02;;;;;;;23.98;9.32;;;;;;;;;;5863605;28;20053;-80
2023/10/15 17:12:53;;;;;;;31.83;12.43;;;;;;;;;;5833958;28;20045;-79
2023/10/15 17:15:44;;;;;;;20.70;13.93;;;;;;;;;;5865441;28;20045;-79
2023/10/15 17:18:34;;;;;;;34.22;17.45;;;;;;;;;;5863700;28;20053;-80
2023/10/15 17:21:25;;;;;;;36.90;17.83;;;;;;;;;;5863755;28;20060;-79
2023/10/15 17:24:16;;;;;;;34.83;15.13;;;;;;;;;;5861070;28;20045;-80
2023/10/15 17:27:07;;;;;;;33.85;17.55;;;;;;;;;;5863942;28;20056;-80
2023/10/15 17:29:59;;;;;;;16.88;11.27;;;;;;;;;;5863061;28;20550;-79
2023/10/15 17:33:08;;;;;;;21.75;8.52;;;;;;;;;;5848226;28;20056;-80
2023/10/15 17:35:59;;;;;;;9.85;6.20;;;;;;;;;;5863067;28;20041;-80
2023/10/15 17:38:50;;;;;;;6.63;3.50;;;;;;;;;;5845782;28;20411;-80
2023/10/15 17:41:41;;;;;;;4.78;2.03;;;;;;;;;;5862676;28;20045;-80
2023/10/15 17:44:32;;;;;;;6.68;2.75;;;;;;;;;;5863410;28;20053;-80
2023/10/15 17:49:58;;;;;;;6.73;1.70;;;;;;;;;;5875612;27;1326595;-78
2023/10/15 17:52:49;;;;;;;2.38;1.95;;;;;;;;;;5907095;28;20647;-78